createdAt,value
2022-11-03T00:01:41.781Z,101416.13
2022-11-03T00:04:11.305Z,101425.66
2022-11-03T00:06:39.203Z,101421.25
2022-11-03T00:09:07.632Z,101417.69
2022-11-03T00:11:40.581Z,101424.50
2022-11-03T00:14:11.368Z,101425.28
2022-11-03T00:16:42.249Z,101422.69
2022-11-03T00:19:09.981Z,101417.47
2022-11-03T00:21:38.612Z,101416.66
2022-11-03T00:24:08.101Z,101412.22
2022-11-03T00:26:44.404Z,101420.09
2022-11-03T00:29:13.086Z,101403.66
2022-11-03T00:31:43.856Z,101407.94
2022-11-03T00:34:12.898Z,101407.97
2022-11-03T00:36:44.439Z,101413.34
2022-11-03T00:39:16.136Z,101405.47
2022-11-03T00:41:48.905Z,101400.91
2022-11-03T00:44:15.650Z,101399.94
2022-11-03T00:46:45.391Z,101400.84
2022-11-03T00:49:12.079Z,101392.16
2022-11-03T00:51:39.051Z,101393.84
2022-11-03T00:54:07.335Z,101398.88
2022-11-03T00:56:41.664Z,101386.66
2022-11-03T00:59:10.063Z,101396.22
2022-11-03T01:01:45.655Z,101395.50
2022-11-03T01:04:33.437Z,101382.41
2022-11-03T01:07:02.236Z,101383.22
2022-11-03T01:09:39.986Z,101383.16
2022-11-03T01:12:08.382Z,101386.47
2022-11-03T01:14:52.149Z,101383.63
2022-11-03T01:17:21.121Z,101377.53
2022-11-03T01:19:48.134Z,101384.44
2022-11-03T01:22:15.793Z,101371.75
2022-11-03T01:24:45.965Z,101374.91
2022-11-03T01:27:18.686Z,101373.25
2022-11-03T01:29:45.481Z,101380.97
2022-11-03T01:32:12.695Z,101384.38
2022-11-03T01:34:39.438Z,101372.22
2022-11-03T01:37:06.738Z,101374.81
2022-11-03T01:39:36.264Z,101372.09
2022-11-03T01:42:02.956Z,101381.66
2022-11-03T01:44:35.032Z,101374.72
2022-11-03T01:47:07.634Z,101372.75
2022-11-03T01:49:45.315Z,101372.84
2022-11-03T01:52:26.490Z,101364.72
2022-11-03T01:54:59.725Z,101360.28
2022-11-03T01:57:33.938Z,101350.81
2022-11-03T02:00:01.559Z,101348.09
2022-11-03T02:02:28.631Z,101347.22
2022-11-03T02:04:57.732Z,101347.31
2022-11-03T02:07:34.355Z,101336.78
2022-11-03T02:10:01.462Z,101340.97
2022-11-03T02:12:28.183Z,101346.50
2022-11-03T02:15:00.489Z,101339.50
2022-11-03T02:17:29.194Z,101333.91
2022-11-03T02:20:06.085Z,101332.19
2022-11-03T02:23:01.192Z,101327.91
2022-11-03T02:25:33.378Z,101327.16
2022-11-03T02:28:00.468Z,101318.28
2022-11-03T02:30:28.433Z,101314.91
2022-11-03T02:33:06.566Z,101315.22
2022-11-03T02:36:15.065Z,101315.03
2022-11-03T02:39:11.472Z,101305.28
2022-11-03T02:41:39.180Z,101303.41
2022-11-03T02:44:11.498Z,101295.06
2022-11-03T02:46:39.088Z,101299.25
2022-11-03T02:49:05.707Z,101297.63
2022-11-03T02:51:32.463Z,101302.59
2022-11-03T02:54:20.716Z,101300.00
2022-11-03T02:56:53.796Z,101298.25
2022-11-03T02:59:25.558Z,101289.50
2022-11-03T03:01:58.386Z,101294.72
2022-11-03T03:04:47.302Z,101308.09
2022-11-03T03:07:20.735Z,101300.03
2022-11-03T03:09:55.066Z,101299.34
2022-11-03T03:12:21.652Z,101288.84
2022-11-03T03:14:49.767Z,101294.19
2022-11-03T03:17:19.663Z,101306.34
2022-11-03T03:19:54.313Z,101288.38
2022-11-03T03:22:43.217Z,101293.91
2022-11-03T03:25:20.243Z,101290.44
2022-11-03T03:27:49.280Z,101297.50
2022-11-03T03:30:16.239Z,101299.28
2022-11-03T03:32:48.195Z,101303.75
2022-11-03T03:35:21.399Z,101296.97
2022-11-03T03:37:50.744Z,101306.72
2022-11-03T03:40:23.232Z,101307.63
2022-11-03T03:42:50.859Z,101305.22
2022-11-03T03:45:18.607Z,101308.00
2022-11-03T03:47:45.569Z,101291.63
2022-11-03T03:50:12.394Z,101287.31
2022-11-03T03:52:39.015Z,101295.63
2022-11-03T03:55:08.067Z,101289.56
2022-11-03T03:57:34.643Z,101287.00
2022-11-03T04:00:01.288Z,101295.81
2022-11-03T04:02:27.967Z,101295.03
2022-11-03T04:04:54.684Z,101291.66
2022-11-03T04:07:42.664Z,101289.16
2022-11-03T04:10:10.365Z,101285.63
2022-11-03T04:12:55.680Z,101281.25
2022-11-03T04:15:40.916Z,101282.09
2022-11-03T04:18:26.701Z,101276.16
2022-11-03T04:21:12.081Z,101261.41
2022-11-03T04:23:39.007Z,101266.91
2022-11-03T04:26:11.943Z,101263.59
2022-11-03T04:28:38.679Z,101261.69
2022-11-03T04:31:07.038Z,101252.25
2022-11-03T04:33:33.656Z,101246.00
2022-11-03T04:36:00.344Z,101232.06
2022-11-03T04:38:27.809Z,101239.13
2022-11-03T04:40:56.336Z,101238.94
2022-11-03T04:43:30.359Z,101241.38
2022-11-03T04:45:57.158Z,101237.00
2022-11-03T04:48:25.060Z,101236.38
2022-11-03T04:50:54.952Z,101225.09
2022-11-03T04:53:22.520Z,101231.09
2022-11-03T04:55:53.550Z,101227.63
2022-11-03T04:58:28.986Z,101224.13
2022-11-03T05:01:00.050Z,101229.31
2022-11-03T05:03:32.319Z,101219.69
2022-11-03T05:05:59.289Z,101219.81
2022-11-03T05:08:25.919Z,101207.56
2022-11-03T05:10:52.646Z,101213.59
2022-11-03T05:13:24.258Z,101202.34
2022-11-03T05:15:52.416Z,101206.59
2022-11-03T05:18:25.824Z,101198.72
2022-11-03T05:21:01.354Z,101190.78
2022-11-03T05:23:30.261Z,101190.03
2022-11-03T05:25:58.356Z,101184.06
2022-11-03T05:28:27.182Z,101174.56
2022-11-03T05:30:54.355Z,101170.16
2022-11-03T05:33:33.878Z,101173.75
2022-11-03T05:36:04.728Z,101171.88
2022-11-03T05:38:32.912Z,101165.72
2022-11-03T05:41:00.250Z,101160.44
2022-11-03T05:43:28.433Z,101166.72
2022-11-03T05:45:58.552Z,101157.13
2022-11-03T05:48:41.117Z,101157.16
2022-11-03T05:51:15.918Z,101157.41
2022-11-03T05:53:43.503Z,101159.00
2022-11-03T05:56:17.831Z,101162.63
2022-11-03T05:58:44.636Z,101158.94
2022-11-03T06:01:13.958Z,101164.94
2022-11-03T06:03:40.683Z,101166.78
2022-11-03T06:06:36.766Z,101171.88
2022-11-03T06:09:09.468Z,101177.09
2022-11-03T06:11:37.026Z,101174.63
2022-11-03T06:14:16.567Z,101179.78
2022-11-03T06:16:48.481Z,101179.88
2022-11-03T06:19:21.125Z,101183.22
2022-11-03T06:21:49.778Z,101188.31
2022-11-03T06:24:18.193Z,101181.53
2022-11-03T06:26:46.370Z,101180.03
2022-11-03T06:29:17.467Z,101185.41
2022-11-03T06:31:47.978Z,101187.03
2022-11-03T06:34:21.236Z,101184.44
2022-11-03T06:36:47.883Z,101176.00
2022-11-03T06:39:20.905Z,101160.34
2022-11-03T06:41:47.575Z,101173.34
2022-11-03T06:44:24.829Z,101176.84
2022-11-03T06:46:53.573Z,101166.56
2022-11-03T06:49:33.288Z,101172.75
2022-11-03T06:52:03.465Z,101170.31
2022-11-03T06:54:30.114Z,101174.13
2022-11-03T06:56:56.781Z,101168.91
2022-11-03T06:59:24.621Z,101174.97
2022-11-03T07:01:54.748Z,101175.78
2022-11-03T07:04:23.056Z,101181.22
2022-11-03T07:06:53.317Z,101174.25
2022-11-03T07:09:22.549Z,101179.53
2022-11-03T07:11:51.885Z,101171.75
2022-11-03T07:14:21.916Z,101168.38
2022-11-03T07:16:51.237Z,101162.31
2022-11-03T07:19:27.441Z,101159.69
2022-11-03T07:21:59.846Z,101160.59
2022-11-03T07:24:33.866Z,101151.94
2022-11-03T07:27:27.321Z,101163.31
2022-11-03T07:30:14.899Z,101152.94
2022-11-03T07:32:42.240Z,101153.81
2022-11-03T07:35:17.927Z,101150.41
2022-11-03T07:37:45.072Z,101148.00
2022-11-03T07:40:18.677Z,101140.19
2022-11-03T07:42:45.382Z,101144.63
2022-11-03T07:45:34.182Z,101150.78
2022-11-03T07:48:11.059Z,101136.03
2022-11-03T07:50:38.608Z,101136.16
2022-11-03T07:53:12.052Z,101130.03
2022-11-03T07:55:38.657Z,101121.34
2022-11-03T07:58:36.096Z,101121.47
2022-11-03T08:01:16.849Z,101125.81
2022-11-03T08:03:46.425Z,101114.59
2022-11-03T08:06:14.678Z,101120.72
2022-11-03T08:08:43.864Z,101115.56
2022-11-03T08:11:10.715Z,101112.06
2022-11-03T08:13:37.378Z,101116.59
2022-11-03T08:16:04.140Z,101109.59
2022-11-03T08:18:30.716Z,101103.56
2022-11-03T08:20:57.374Z,101099.22
2022-11-03T08:23:26.078Z,101094.06
2022-11-03T08:25:53.013Z,101087.06
2022-11-03T08:28:19.621Z,101084.53
2022-11-03T08:30:46.242Z,101074.94
2022-11-03T08:33:12.916Z,101079.31
2022-11-03T08:35:39.586Z,101077.59
2022-11-03T08:38:06.452Z,101058.41
2022-11-03T08:40:33.249Z,101061.91
2022-11-03T08:43:02.955Z,101068.06
2022-11-03T08:45:30.346Z,101061.06
2022-11-03T08:47:57.221Z,101048.84
2022-11-03T08:50:24.490Z,101051.47
2022-11-03T08:52:51.233Z,101048.84
2022-11-03T08:55:18.065Z,101043.63
2022-11-03T08:57:44.674Z,101036.63
2022-11-03T09:00:12.022Z,101032.25
2022-11-03T09:02:38.845Z,101026.97
2022-11-03T09:05:07.761Z,101029.59
2022-11-03T09:10:26.347Z,101021.63
2022-11-03T09:12:59.494Z,101012.84
2022-11-03T09:15:26.113Z,101010.16
2022-11-03T09:17:52.814Z,101002.25
2022-11-03T09:20:21.048Z,101001.16
2022-11-03T09:22:47.690Z,100996.81
2022-11-03T09:25:14.417Z,100996.81
2022-11-03T09:27:41.055Z,100989.78
2022-11-03T09:30:13.282Z,100987.00
2022-11-03T09:32:41.037Z,100987.75
2022-11-03T09:35:09.609Z,100992.13
2022-11-03T09:37:36.878Z,100984.13
2022-11-03T09:40:04.306Z,100976.13
2022-11-03T09:42:34.367Z,100964.47
2022-11-03T09:45:02.030Z,100962.59
2022-11-03T09:47:36.378Z,100958.78
2022-11-03T09:50:03.514Z,100955.19
2022-11-03T09:52:31.065Z,100954.03
2022-11-03T09:54:59.613Z,100944.13
2022-11-03T09:57:29.395Z,100952.72
2022-11-03T09:59:56.148Z,100945.28
2022-11-03T10:02:28.620Z,100937.25
2022-11-03T10:04:57.487Z,100932.38
2022-11-03T10:07:26.231Z,100927.78
2022-11-03T10:09:54.289Z,100928.16
2022-11-03T10:12:22.002Z,100924.50
2022-11-03T10:14:49.045Z,100918.09
2022-11-03T10:17:22.219Z,100911.59
2022-11-03T10:19:51.571Z,100916.69
2022-11-03T10:22:20.278Z,100905.38
2022-11-03T10:24:46.837Z,100907.00
2022-11-03T10:27:22.132Z,100907.72
2022-11-03T10:30:10.513Z,100895.41
2022-11-03T10:32:38.157Z,100899.75
2022-11-03T10:35:34.029Z,100890.06
2022-11-03T10:38:31.241Z,100880.50
2022-11-03T10:41:13.032Z,100883.31
2022-11-03T10:43:41.227Z,100882.31
2022-11-03T10:46:44.611Z,100879.00
2022-11-03T10:49:15.550Z,100882.72
2022-11-03T10:51:43.229Z,100871.84
2022-11-03T10:54:13.077Z,100873.56
2022-11-03T10:56:39.820Z,100867.47
2022-11-03T10:59:06.684Z,100869.22
2022-11-03T11:01:33.579Z,100871.25
2022-11-03T11:04:00.296Z,100867.47
2022-11-03T11:06:30.880Z,100861.81
2022-11-03T11:09:02.390Z,100850.31
2022-11-03T11:11:29.187Z,100854.69
2022-11-03T11:14:21.983Z,100844.06
2022-11-03T11:16:53.008Z,100836.00
2022-11-03T11:19:22.626Z,100831.66
2022-11-03T11:21:56.635Z,100827.00
2022-11-03T11:24:45.287Z,100815.41
2022-11-03T11:27:31.949Z,100817.06
2022-11-03T11:29:59.334Z,100817.94
2022-11-03T11:32:44.829Z,100807.25
2022-11-03T11:35:16.117Z,100804.53
2022-11-03T11:37:43.663Z,100808.03
2022-11-03T11:40:36.306Z,100808.34
2022-11-03T11:43:02.919Z,100806.50
2022-11-03T11:46:07.472Z,100799.25
2022-11-03T11:48:36.486Z,100795.91
2022-11-03T11:51:04.044Z,100782.00
2022-11-03T11:53:44.016Z,100787.34
2022-11-03T11:56:14.119Z,100779.34
2022-11-03T11:58:42.493Z,100779.47
2022-11-03T12:01:30.988Z,100768.97
2022-11-03T12:04:00.133Z,100765.25
2022-11-03T12:06:38.604Z,100764.38
2022-11-03T12:09:29.390Z,100763.81
2022-11-03T12:12:07.180Z,100758.59
2022-11-03T12:14:37.025Z,100755.03
2022-11-03T12:17:19.093Z,100753.75
2022-11-03T12:19:47.824Z,100748.50
2022-11-03T12:22:23.668Z,100740.69
2022-11-03T12:24:51.529Z,100741.78
2022-11-03T12:27:42.649Z,100742.69
2022-11-03T12:30:19.196Z,100737.59
2022-11-03T12:32:46.864Z,100735.59
2022-11-03T12:35:14.186Z,100732.06
2022-11-03T12:37:42.191Z,100723.50
2022-11-03T12:40:10.169Z,100727.00
2022-11-03T12:42:37.060Z,100730.81
2022-11-03T12:45:04.154Z,100724.44
2022-11-03T12:47:30.944Z,100721.72
2022-11-03T12:49:57.759Z,100725.22
2022-11-03T12:52:24.554Z,100721.72
2022-11-03T12:54:51.275Z,100720.88
2022-11-03T12:57:18.072Z,100714.09
2022-11-03T12:59:44.797Z,100709.28
2022-11-03T13:02:11.936Z,100703.22
2022-11-03T13:04:39.031Z,100707.78
2022-11-03T13:07:05.810Z,100709.06
2022-11-03T13:09:32.552Z,100708.25
2022-11-03T13:12:17.907Z,100707.97
2022-11-03T13:14:47.766Z,100708.25
2022-11-03T13:17:15.291Z,100708.34
2022-11-03T13:19:42.951Z,100699.38
2022-11-03T13:22:09.602Z,100682.41
2022-11-03T13:24:36.328Z,100683.28
2022-11-03T13:27:03.114Z,100678.19
2022-11-03T13:29:34.961Z,100673.81
2022-11-03T13:32:03.593Z,100672.75
2022-11-03T13:34:30.489Z,100665.78
2022-11-03T13:36:57.242Z,100666.47
2022-11-03T13:39:23.829Z,100667.25
2022-11-03T13:41:50.656Z,100658.19
2022-11-03T13:44:17.329Z,100650.41
2022-11-03T13:46:43.906Z,100647.94
2022-11-03T13:51:57.201Z,100641.59
2022-11-03T14:00:01.913Z,100629.69
2022-11-03T14:05:18.155Z,100609.44
2022-11-03T14:07:45.225Z,100608.03
2022-11-03T14:10:14.885Z,100603.69
2022-11-03T14:12:41.696Z,100593.34
2022-11-03T14:15:11.123Z,100593.28
2022-11-03T14:17:39.574Z,100590.06
2022-11-03T14:20:11.610Z,100584.22
2022-11-03T14:22:39.417Z,100587.72
2022-11-03T14:25:06.626Z,100585.25
2022-11-03T14:27:34.350Z,100588.75
2022-11-03T14:30:01.176Z,100582.34
2022-11-03T14:32:28.023Z,100580.19
2022-11-03T14:34:54.846Z,100575.66
2022-11-03T14:37:24.704Z,100581.25
2022-11-03T14:39:51.429Z,100579.47
2022-11-03T14:42:18.317Z,100564.50
2022-11-03T14:44:46.594Z,100563.88
2022-11-03T14:47:18.021Z,100559.75
2022-11-03T14:49:46.665Z,100556.81
2022-11-03T14:52:14.407Z,100556.97
2022-11-03T14:54:41.290Z,100545.47
2022-11-03T14:57:08.102Z,100541.38
2022-11-03T14:59:34.904Z,100541.38
2022-11-03T15:02:02.040Z,100537.28
2022-11-03T15:04:29.235Z,100536.50
2022-11-03T15:06:55.928Z,100529.47
2022-11-03T15:09:22.685Z,100519.66
2022-11-03T15:11:49.414Z,100512.69
2022-11-03T15:14:16.160Z,100511.88
2022-11-03T15:16:44.002Z,100508.34
2022-11-03T15:19:10.613Z,100503.44
2022-11-03T15:21:37.252Z,100512.34
2022-11-03T15:26:51.399Z,100498.34
2022-11-03T15:29:18.106Z,100500.53
2022-11-03T15:31:48.244Z,100486.53
2022-11-03T15:34:16.009Z,100486.31
2022-11-03T15:36:42.760Z,100486.34
2022-11-03T15:39:09.697Z,100479.38
2022-11-03T15:41:36.484Z,100478.72
2022-11-03T15:44:03.156Z,100469.47
2022-11-03T15:46:39.063Z,100464.97
2022-11-03T15:49:05.709Z,100461.69
2022-11-03T15:51:32.460Z,100464.91
2022-11-03T15:53:59.551Z,100463.44
2022-11-03T15:56:27.235Z,100454.81
2022-11-03T15:58:54.230Z,100456.75
2022-11-03T16:01:21.030Z,100446.53
2022-11-03T16:03:47.993Z,100436.00
2022-11-03T16:06:14.703Z,100438.59
2022-11-03T16:08:41.536Z,100434.31
2022-11-03T16:11:09.178Z,100429.25
2022-11-03T16:13:36.163Z,100434.72
2022-11-03T16:16:03.146Z,100433.00
2022-11-03T16:18:29.807Z,100432.16
2022-11-03T16:20:56.613Z,100419.22
2022-11-03T16:23:23.330Z,100417.69
2022-11-03T16:25:50.055Z,100410.66
2022-11-03T16:28:16.708Z,100412.41
2022-11-03T16:30:43.379Z,100395.78
2022-11-03T16:33:10.209Z,100388.72
2022-11-03T16:35:36.929Z,100390.69
2022-11-03T16:38:04.143Z,100379.47
2022-11-03T16:40:30.795Z,100373.22
2022-11-03T16:42:57.455Z,100362.66
2022-11-03T16:45:26.603Z,100361.78
2022-11-03T16:47:53.543Z,100360.81
2022-11-03T16:50:20.737Z,100349.28
2022-11-03T16:52:49.189Z,100358.94
2022-11-03T16:55:17.331Z,100351.00
2022-11-03T16:57:44.101Z,100349.13
2022-11-03T17:00:13.245Z,100343.97
2022-11-03T17:02:40.411Z,100342.25
2022-11-03T17:05:07.810Z,100343.97
2022-11-03T17:07:34.554Z,100342.91
2022-11-03T17:10:01.437Z,100335.50
2022-11-03T17:12:28.142Z,100332.00
2022-11-03T17:14:56.730Z,100331.03
2022-11-03T17:17:23.964Z,100319.63
2022-11-03T17:19:51.111Z,100314.94
2022-11-03T17:22:18.425Z,100317.91
2022-11-03T17:24:45.028Z,100314.16
2022-11-03T17:27:29.155Z,100301.47
2022-11-03T17:29:58.001Z,100311.94
2022-11-03T17:32:27.065Z,100295.94
2022-11-03T17:34:54.722Z,100288.75
2022-11-03T17:37:21.440Z,100288.56
2022-11-03T17:39:48.127Z,100283.13
2022-11-03T17:42:24.712Z,100282.97
2022-11-03T17:44:53.588Z,100274.09
2022-11-03T17:47:20.781Z,100273.19
2022-11-03T17:49:48.099Z,100269.94
2022-11-03T17:52:27.748Z,100274.13
2022-11-03T17:54:56.059Z,100276.00
2022-11-03T17:57:23.253Z,100275.75
2022-11-03T17:59:51.854Z,100264.41
2022-11-03T18:02:21.651Z,100263.34
2022-11-03T18:04:49.267Z,100259.19
2022-11-03T18:07:21.547Z,100257.25
2022-11-03T18:09:48.768Z,100250.88
2022-11-03T18:12:35.690Z,100254.47
2022-11-03T18:15:05.133Z,100245.78
2022-11-03T18:17:32.236Z,100240.56
2022-11-03T18:19:59.098Z,100226.59
2022-11-03T18:22:25.849Z,100223.31
2022-11-03T18:24:52.966Z,100218.69
2022-11-03T18:27:24.947Z,100211.53
2022-11-03T18:29:52.073Z,100203.09
2022-11-03T18:32:19.344Z,100197.63
2022-11-03T18:34:47.809Z,100180.28
2022-11-03T18:37:14.616Z,100179.25
2022-11-03T18:39:41.371Z,100166.94
2022-11-03T18:42:13.010Z,100155.69
2022-11-03T18:44:41.471Z,100153.88
2022-11-03T18:47:08.847Z,100166.94
2022-11-03T18:49:35.845Z,100158.09
2022-11-03T18:52:15.858Z,100147.75
2022-11-03T18:54:47.631Z,100155.06
2022-11-03T18:57:15.364Z,100149.97
2022-11-03T18:59:44.016Z,100144.66
2022-11-03T19:02:17.020Z,100130.38
2022-11-03T19:04:43.907Z,100125.06
2022-11-03T19:07:16.885Z,100111.16
2022-11-03T19:09:44.097Z,100107.06
2022-11-03T19:12:11.672Z,100091.28
2022-11-03T19:14:39.965Z,100082.34
2022-11-03T19:17:26.169Z,100070.88
2022-11-03T19:19:53.502Z,100069.19
2022-11-03T19:22:21.686Z,100069.94
2022-11-03T19:24:48.805Z,100058.56
2022-11-03T19:27:22.667Z,100043.72
2022-11-03T19:29:49.510Z,100049.97
2022-11-03T19:32:25.420Z,100042.31
2022-11-03T19:35:06.247Z,100032.50
2022-11-03T19:37:35.728Z,100034.22
2022-11-03T19:40:08.893Z,100034.19
2022-11-03T19:42:39.591Z,100027.06
2022-11-03T19:45:10.825Z,100036.56
2022-11-03T19:47:57.547Z,100019.75
2022-11-03T19:50:34.966Z,100016.44
2022-11-03T19:53:03.831Z,100017.16
2022-11-03T19:55:34.434Z,100013.63
2022-11-03T19:58:11.590Z,100011.38
2022-11-03T20:00:38.302Z,99997.91
2022-11-03T20:03:05.107Z,99997.28
2022-11-03T20:05:31.914Z,99991.31
2022-11-03T20:08:01.839Z,99999.25
2022-11-03T20:10:31.721Z,99996.59
2022-11-03T20:13:01.680Z,100000.16
2022-11-03T20:15:28.338Z,100003.78
2022-11-03T20:17:57.023Z,99992.16
2022-11-03T20:20:29.459Z,99995.16
2022-11-03T20:22:58.284Z,99980.16
2022-11-03T20:25:31.220Z,99979.44
2022-11-03T20:27:58.060Z,99971.44
2022-11-03T20:30:26.449Z,99966.94
2022-11-03T20:32:53.533Z,99968.13
2022-11-03T20:35:28.316Z,99963.81
2022-11-03T20:37:58.162Z,99966.69
2022-11-03T20:40:26.948Z,99967.16
2022-11-03T20:42:56.737Z,99978.75
2022-11-03T20:45:24.074Z,99972.72
2022-11-03T20:47:51.922Z,99967.16
2022-11-03T20:50:20.775Z,99964.13
2022-11-03T20:52:48.083Z,99944.88
2022-11-03T20:55:27.708Z,99939.03
2022-11-03T20:57:56.568Z,99931.97
2022-11-03T21:00:30.238Z,99915.16
2022-11-03T21:03:01.749Z,99921.44
2022-11-03T21:05:34.780Z,99939.41
2022-11-03T21:08:04.929Z,99932.28
2022-11-03T21:10:31.654Z,99946.47
2022-11-03T21:12:58.607Z,99934.19
2022-11-03T21:16:03.722Z,99936.91
2022-11-03T21:18:49.841Z,99935.31
2022-11-03T21:21:20.761Z,99937.19
2022-11-03T21:23:48.118Z,99932.00
2022-11-03T21:26:14.872Z,99929.16
2022-11-03T21:28:44.523Z,99921.72
2022-11-03T21:31:17.363Z,99917.38
2022-11-03T21:33:44.071Z,99917.25
2022-11-03T21:36:10.812Z,99918.56
2022-11-03T21:38:37.572Z,99918.53
2022-11-03T21:41:25.741Z,99914.16
2022-11-03T21:44:11.010Z,99908.94
2022-11-03T21:46:38.736Z,99911.56
2022-11-03T21:49:23.894Z,99909.09
2022-11-03T21:51:50.780Z,99907.56
2022-11-03T21:54:17.545Z,99901.44
2022-11-03T21:56:46.398Z,99896.16
2022-11-03T21:59:13.105Z,99893.72
2022-11-03T22:01:39.764Z,99894.69
2022-11-03T22:04:06.756Z,99892.00
2022-11-03T22:06:33.416Z,99884.03
2022-11-03T22:09:00.252Z,99885.13
2022-11-03T22:11:29.069Z,99873.13
2022-11-03T22:14:00.279Z,99871.44
2022-11-03T22:16:45.294Z,99868.78
2022-11-03T22:19:33.555Z,99870.53
2022-11-03T22:22:19.937Z,99875.03
2022-11-03T22:25:05.194Z,99859.94
2022-11-03T22:27:35.642Z,99858.38
2022-11-03T22:30:21.277Z,99855.88
2022-11-03T22:32:53.184Z,99851.91
2022-11-03T22:35:40.042Z,99860.06
2022-11-03T22:38:17.786Z,99841.88
2022-11-03T22:41:05.597Z,99852.44
2022-11-03T22:43:51.086Z,99843.13
2022-11-03T22:46:17.751Z,99849.28
2022-11-03T22:48:44.759Z,99846.66
2022-11-03T22:51:14.652Z,99859.03
2022-11-03T22:54:00.499Z,99839.47
2022-11-03T22:56:29.413Z,99842.31
2022-11-03T22:59:01.527Z,99844.09
2022-11-03T23:01:28.451Z,99835.31
2022-11-03T23:03:55.398Z,99835.31
2022-11-03T23:06:25.737Z,99831.03
2022-11-03T23:08:54.542Z,99829.16
2022-11-03T23:11:21.056Z,99831.28
2022-11-03T23:13:59.102Z,99825.88
2022-11-03T23:16:31.422Z,99830.06
2022-11-03T23:19:21.639Z,99822.34
2022-11-03T23:21:50.228Z,99825.56
2022-11-03T23:24:39.217Z,99815.16
2022-11-03T23:27:09.422Z,99822.31
2022-11-03T23:29:39.371Z,99816.94
2022-11-03T23:32:09.456Z,99810.69
2022-11-03T23:34:36.099Z,99813.16
2022-11-03T23:37:03.192Z,99816.78
2022-11-03T23:39:30.114Z,99811.59
2022-11-03T23:41:56.743Z,99800.25
2022-11-03T23:44:23.507Z,99800.22
2022-11-03T23:47:09.129Z,99799.41
2022-11-03T23:49:35.948Z,99798.47
2022-11-03T23:52:02.757Z,99793.38
2022-11-03T23:54:29.487Z,99796.59
2022-11-03T23:57:14.818Z,99787.97
2022-11-03T23:59:41.538Z,99780.16
